createdAt,value
2022-09-14T00:02:16.118Z,99487.22
2022-09-14T00:05:19.064Z,99491.31
2022-09-14T00:08:21.944Z,99490.50
2022-09-14T00:11:27.212Z,99492.75
2022-09-14T00:14:29.792Z,99491.50
2022-09-14T00:17:32.568Z,99485.72
2022-09-14T00:20:35.653Z,99485.09
2022-09-14T00:23:40.662Z,99484.25
2022-09-14T00:26:43.245Z,99486.09
2022-09-14T00:29:48.643Z,99482.59
2022-09-14T00:32:51.543Z,99474.94
2022-09-14T00:35:54.271Z,99468.13
2022-09-14T00:38:57.083Z,99471.22
2022-09-14T00:42:00.014Z,99456.56
2022-09-14T00:45:08.235Z,99458.16
2022-09-14T00:48:11.073Z,99458.56
2022-09-14T00:51:14.402Z,99460.19
2022-09-14T00:54:17.527Z,99471.28
2022-09-14T00:57:20.511Z,99464.50
2022-09-14T01:00:25.799Z,99471.06
2022-09-14T01:03:28.678Z,99472.94
2022-09-14T01:06:52.732Z,99467.97
2022-09-14T01:10:10.474Z,99464.66
2022-09-14T01:13:22.988Z,99473.94
2022-09-14T01:16:37.914Z,99462.59
2022-09-14T01:20:18.323Z,99461.09
2022-09-14T01:23:48.716Z,99452.44
2022-09-14T01:26:54.443Z,99446.66
2022-09-14T01:30:06.568Z,99442.53
2022-09-14T01:33:16.441Z,99445.84
2022-09-14T01:36:19.478Z,99434.91
2022-09-14T01:39:22.588Z,99432.00
2022-09-14T01:42:26.640Z,99433.22
2022-09-14T01:45:30.867Z,99436.94
2022-09-14T01:48:37.521Z,99432.81
2022-09-14T01:51:47.604Z,99430.53
2022-09-14T01:54:54.860Z,99429.06
2022-09-14T01:58:13.991Z,99431.47
2022-09-14T02:01:23.905Z,99419.13
2022-09-14T02:04:45.207Z,99415.81
2022-09-14T02:07:48.047Z,99419.53
2022-09-14T02:10:50.669Z,99414.16
2022-09-14T02:13:53.561Z,99408.81
2022-09-14T02:16:56.079Z,99413.94
2022-09-14T02:20:04.913Z,99404.88
2022-09-14T02:23:07.793Z,99393.38
2022-09-14T02:26:11.235Z,99389.47
2022-09-14T02:29:13.739Z,99388.00
2022-09-14T02:33:08.493Z,99376.25
2022-09-14T02:36:20.897Z,99374.00
2022-09-14T02:39:36.677Z,99382.03
2022-09-14T02:42:39.105Z,99376.69
2022-09-14T02:46:00.451Z,99371.53
2022-09-14T02:49:06.681Z,99367.84
2022-09-14T02:52:16.016Z,99362.69
2022-09-14T02:55:20.631Z,99368.87
2022-09-14T02:58:23.659Z,99364.75
2022-09-14T03:01:26.266Z,99347.88
2022-09-14T03:04:29.227Z,99358.75
2022-09-14T03:07:31.719Z,99356.91
2022-09-14T03:10:34.897Z,99357.94
2022-09-14T03:13:37.572Z,99357.94
2022-09-14T03:16:40.483Z,99352.38
2022-09-14T03:19:43.962Z,99351.56
2022-09-14T03:22:47.223Z,99350.53
2022-09-14T03:25:49.752Z,99345.81
2022-09-14T03:28:53.930Z,99348.50
2022-09-14T03:31:56.420Z,99344.59
2022-09-14T03:34:59.519Z,99337.00
2022-09-14T03:38:03.309Z,99342.12
2022-09-14T03:41:09.865Z,99341.94
2022-09-14T03:44:12.305Z,99339.88
2022-09-14T03:47:15.083Z,99341.34
2022-09-14T03:50:18.652Z,99339.94
2022-09-14T03:53:21.400Z,99338.31
2022-09-14T03:56:24.063Z,99342.44
2022-09-14T03:59:26.912Z,99349.44
2022-09-14T04:02:29.919Z,99346.97
2022-09-14T04:05:32.729Z,99337.72
2022-09-14T04:08:36.688Z,99356.25
2022-09-14T04:11:39.499Z,99357.91
2022-09-14T04:14:42.021Z,99354.19
2022-09-14T04:17:44.864Z,99354.19
2022-09-14T04:21:08.052Z,99356.66
2022-09-14T04:24:15.651Z,99329.91
2022-09-14T04:27:18.704Z,99335.25
2022-09-14T04:30:21.712Z,99329.06
2022-09-14T04:33:24.393Z,99320.03
2022-09-14T04:36:31.037Z,99309.94
2022-09-14T04:39:34.099Z,99302.94
2022-09-14T04:42:36.872Z,99302.75
2022-09-14T04:45:39.320Z,99302.75
2022-09-14T04:48:42.128Z,99307.47
2022-09-14T04:51:45.182Z,99312.84
2022-09-14T04:54:47.937Z,99313.88
2022-09-14T04:57:51.095Z,99317.97
2022-09-14T05:00:54.235Z,99312.63
2022-09-14T05:03:57.273Z,99312.03
2022-09-14T05:07:00.073Z,99306.28
2022-09-14T05:10:02.613Z,99291.25
2022-09-14T05:13:05.451Z,99290.03
2022-09-14T05:16:16.272Z,99305.06
2022-09-14T05:19:19.125Z,99309.41
2022-09-14T05:22:22.331Z,99313.94
2022-09-14T05:25:25.968Z,99315.44
2022-09-14T05:28:28.753Z,99325.34
2022-09-14T05:31:32.207Z,99320.19
2022-09-14T05:34:34.872Z,99327.59
2022-09-14T05:37:37.701Z,99330.94
2022-09-14T05:40:41.019Z,99326.38
2022-09-14T05:43:46.269Z,99322.47
2022-09-14T05:46:48.874Z,99309.03
2022-09-14T05:49:51.755Z,99286.75
2022-09-14T05:52:55.172Z,99284.28
2022-09-14T05:56:01.929Z,99283.84
2022-09-14T05:59:04.599Z,99280.31
2022-09-14T06:02:07.458Z,99291.66
2022-09-14T06:05:10.276Z,99301.53
2022-09-14T06:08:12.748Z,99309.16
2022-09-14T06:11:18.032Z,99319.88
2022-09-14T06:14:21.344Z,99328.97
2022-09-14T06:17:24.488Z,99330.81
2022-09-14T06:20:27.032Z,99328.09
2022-09-14T06:23:30.923Z,99312.16
2022-09-14T06:26:33.466Z,99295.19
2022-09-14T06:29:36.320Z,99283.16
2022-09-14T06:32:38.788Z,99296.72
2022-09-14T06:35:42.268Z,99304.09
2022-09-14T06:38:45.367Z,99317.06
2022-09-14T06:41:48.260Z,99305.06
2022-09-14T06:44:54.233Z,99293.00
2022-09-14T06:47:57.662Z,99292.75
2022-09-14T06:51:00.473Z,99302.06
2022-09-14T06:54:04.251Z,99304.09
2022-09-14T06:57:06.720Z,99315.22
2022-09-14T07:00:10.336Z,99315.97
2022-09-14T07:03:12.914Z,99325.84
2022-09-14T07:06:18.378Z,99312.41
2022-09-14T07:09:21.167Z,99315.25
2022-09-14T07:12:24.045Z,99315.25
2022-09-14T07:15:26.803Z,99321.03
2022-09-14T07:18:33.113Z,99315.03
2022-09-14T07:21:35.769Z,99307.41
2022-09-14T07:24:38.549Z,99291.06
2022-09-14T07:27:41.099Z,99311.31
2022-09-14T07:30:43.953Z,99317.72
2022-09-14T07:33:46.779Z,99323.53
2022-09-14T07:36:49.504Z,99300.56
2022-09-14T07:39:52.076Z,99301.59
2022-09-14T07:42:57.564Z,99309.44
2022-09-14T07:46:04.645Z,99313.59
2022-09-14T07:49:08.448Z,99306.72
2022-09-14T07:52:11.542Z,99306.28
2022-09-14T07:55:14.406Z,99292.75
2022-09-14T07:58:16.906Z,99295.81
2022-09-14T08:01:19.765Z,99304.94
2022-09-14T08:04:22.129Z,99294.78
2022-09-14T08:07:24.883Z,99296.81
2022-09-14T08:10:27.631Z,99282.31
2022-09-14T08:13:30.945Z,99300.25
2022-09-14T08:16:38.723Z,99301.03
2022-09-14T08:19:41.413Z,99286.66
2022-09-14T08:22:44.406Z,99282.41
2022-09-14T08:25:46.737Z,99273.12
2022-09-14T08:28:50.789Z,99271.50
2022-09-14T08:31:53.214Z,99253.69
2022-09-14T08:34:55.565Z,99266.66
2022-09-14T08:37:57.884Z,99267.91
2022-09-14T08:41:08.341Z,99266.44
2022-09-14T08:44:53.998Z,99276.22
2022-09-14T08:47:57.656Z,99266.78
2022-09-14T08:51:00.246Z,99264.16
2022-09-14T08:54:02.617Z,99260.69
2022-09-14T08:57:18.103Z,99252.28
2022-09-14T09:00:26.129Z,99257.13
2022-09-14T09:03:36.137Z,99244.84
2022-09-14T09:07:09.811Z,99245.59
2022-09-14T09:10:12.916Z,99251.03
2022-09-14T09:13:21.849Z,99251.53
2022-09-14T09:16:25.233Z,99250.22
2022-09-14T09:19:38.606Z,99258.09
2022-09-14T09:22:43.924Z,99260.53
2022-09-14T09:25:55.509Z,99259.81
2022-09-14T09:29:02.294Z,99268.44
2022-09-14T09:32:24.968Z,99271.09
2022-09-14T09:35:28.906Z,99279.28
2022-09-14T09:38:31.646Z,99290.97
2022-09-14T09:42:01.879Z,99282.00
2022-09-14T09:45:10.151Z,99290.88
2022-09-14T09:48:14.258Z,99296.53
2022-09-14T09:51:29.948Z,99309.41
2022-09-14T09:54:33.067Z,99309.91
2022-09-14T09:57:36.806Z,99301.03
2022-09-14T10:00:39.763Z,99307.66
2022-09-14T10:03:43.145Z,99310.53
2022-09-14T10:06:48.418Z,99312.09
2022-09-14T10:10:19.671Z,99305.06
2022-09-14T10:13:36.487Z,99305.97
2022-09-14T10:16:42.099Z,99309.69
2022-09-14T10:19:52.329Z,99307.03
2022-09-14T10:22:55.142Z,99304.72
2022-09-14T10:26:19.143Z,99312.75
2022-09-14T10:29:35.488Z,99308.84
2022-09-14T10:32:39.117Z,99299.91
2022-09-14T10:35:41.873Z,99291.84
2022-09-14T10:38:58.674Z,99297.31
2022-09-14T10:42:07.019Z,99291.47
2022-09-14T10:45:29.676Z,99290.81
2022-09-14T10:48:59.655Z,99284.69
2022-09-14T10:52:18.881Z,99279.78
2022-09-14T10:55:31.850Z,99271.88
2022-09-14T10:58:46.847Z,99268.87
2022-09-14T11:02:34.376Z,99278.75
2022-09-14T11:05:56.158Z,99283.16
2022-09-14T11:09:01.147Z,99281.00
2022-09-14T11:12:26.831Z,99277.34
2022-09-14T11:15:41.509Z,99276.56
2022-09-14T11:19:06.182Z,99270.06
2022-09-14T11:22:30.151Z,99271.72
2022-09-14T11:25:47.495Z,99268.53
2022-09-14T11:29:02.736Z,99257.47
2022-09-14T11:32:29.047Z,99248.81
2022-09-14T11:35:36.999Z,99249.59
2022-09-14T11:39:09.136Z,99253.16
2022-09-14T11:42:22.952Z,99244.72
2022-09-14T11:45:32.139Z,99238.50
2022-09-14T11:48:45.424Z,99240.41
2022-09-14T11:51:55.315Z,99236.06
2022-09-14T11:55:00.120Z,99232.00
2022-09-14T11:58:06.468Z,99224.78
2022-09-14T12:01:41.466Z,99223.72
2022-09-14T12:05:06.890Z,99207.44
2022-09-14T12:08:35.472Z,99227.81
2022-09-14T12:11:38.519Z,99222.91
2022-09-14T12:14:44.015Z,99225.91
2022-09-14T12:17:47.035Z,99215.91
2022-09-14T12:21:21.192Z,99217.88
2022-09-14T12:24:24.851Z,99218.75
2022-09-14T12:27:31.128Z,99218.19
2022-09-14T12:30:40.992Z,99207.94
2022-09-14T12:33:45.169Z,99205.03
2022-09-14T12:36:47.831Z,99198.28
2022-09-14T12:40:21.521Z,99197.75
2022-09-14T12:43:34.109Z,99197.75
2022-09-14T12:46:38.635Z,99202.75
2022-09-14T12:49:41.548Z,99194.88
2022-09-14T12:53:02.683Z,99183.34
2022-09-14T12:56:07.219Z,99185.37
2022-09-14T12:59:24.860Z,99172.38
2022-09-14T13:03:01.818Z,99170.75
2022-09-14T13:06:05.655Z,99162.59
2022-09-14T13:09:16.737Z,99140.34
2022-09-14T13:12:34.454Z,99136.59
2022-09-14T13:15:45.853Z,99133.63
2022-09-14T13:18:48.351Z,99137.69
2022-09-14T13:21:54.581Z,99130.44
2022-09-14T13:24:58.452Z,99134.78
2022-09-14T13:28:04.090Z,99130.41
2022-09-14T13:31:06.771Z,99129.59
2022-09-14T13:34:44.484Z,99137.47
2022-09-14T13:37:48.452Z,99144.84
2022-09-14T13:40:54.560Z,99132.03
2022-09-14T13:43:58.103Z,99136.66
2022-09-14T13:47:05.084Z,99143.19
2022-09-14T13:50:08.315Z,99138.03
2022-09-14T13:53:40.517Z,99143.75
2022-09-14T13:56:43.044Z,99149.44
2022-09-14T14:00:06.057Z,99142.91
2022-09-14T14:03:25.889Z,99154.63
2022-09-14T14:06:35.588Z,99135.31
2022-09-14T14:09:42.726Z,99137.50
2022-09-14T14:12:48.914Z,99137.50
2022-09-14T14:15:56.137Z,99130.13
2022-09-14T14:18:58.978Z,99124.69
2022-09-14T14:22:13.792Z,99117.63
2022-09-14T14:25:24.800Z,99119.53
2022-09-14T14:28:29.569Z,99104.84
2022-09-14T14:31:32.773Z,99096.69
2022-09-14T14:34:35.220Z,99092.88
2022-09-14T14:37:38.069Z,99106.22
2022-09-14T14:40:41.299Z,99106.75
2022-09-14T14:43:46.856Z,99097.25
2022-09-14T14:46:49.385Z,99085.81
2022-09-14T14:49:53.282Z,99079.56
2022-09-14T14:52:56.099Z,99088.28
2022-09-14T14:55:58.939Z,99075.75
2022-09-14T14:59:02.325Z,99066.50
2022-09-14T15:02:06.836Z,99070.84
2022-09-14T15:05:09.546Z,99072.47
2022-09-14T15:08:14.095Z,99076.56
2022-09-14T15:11:18.276Z,99082.03
2022-09-14T15:14:26.701Z,99083.12
2022-09-14T15:17:29.788Z,99074.62
2022-09-14T15:20:32.906Z,99067.56
2022-09-14T15:23:35.577Z,99062.69
2022-09-14T15:26:38.634Z,99056.16
2022-09-14T15:29:41.119Z,99046.63
2022-09-14T15:32:43.990Z,99046.38
2022-09-14T15:35:46.533Z,99030.31
2022-09-14T15:38:49.307Z,99032.47
2022-09-14T15:41:52.631Z,99028.94
2022-09-14T15:44:55.454Z,99028.94
2022-09-14T15:47:57.940Z,99020.25
2022-09-14T15:51:09.644Z,99013.19
2022-09-14T15:54:12.714Z,99003.41
2022-09-14T15:57:15.486Z,98994.44
2022-09-14T16:00:19.532Z,98999.59
2022-09-14T16:03:22.299Z,98998.50
2022-09-14T16:06:25.099Z,99003.13
2022-09-14T16:09:27.928Z,99016.69
2022-09-14T16:12:30.403Z,99025.66
2022-09-14T16:15:33.220Z,99036.78
2022-09-14T16:18:36.619Z,99025.87
2022-09-14T16:21:40.445Z,99048.13
2022-09-14T16:24:42.953Z,99046.75
2022-09-14T16:27:45.916Z,99052.44
2022-09-14T16:30:48.523Z,99055.44
2022-09-14T16:33:55.295Z,99050.00
2022-09-14T16:36:58.775Z,99044.53
2022-09-14T16:40:02.544Z,99047.22
2022-09-14T16:43:05.277Z,99050.16
2022-09-14T16:46:13.739Z,99053.38
2022-09-14T16:49:17.931Z,99042.50
2022-09-14T16:52:20.753Z,99039.69
2022-09-14T16:55:23.167Z,99024.97
2022-09-14T16:58:25.988Z,99028.47
2022-09-14T17:01:42.728Z,99026.75
2022-09-14T17:04:45.516Z,99023.97
2022-09-14T17:07:48.117Z,99020.69
2022-09-14T17:10:51.995Z,99015.72
2022-09-14T17:13:55.131Z,99012.91
2022-09-14T17:16:58.892Z,99025.00
2022-09-14T17:20:01.681Z,99023.81
2022-09-14T17:23:04.581Z,99025.03
2022-09-14T17:26:09.900Z,99010.31
2022-09-14T17:29:13.190Z,98996.97
2022-09-14T17:32:15.650Z,98997.16
2022-09-14T17:35:18.429Z,98987.34
2022-09-14T17:38:23.311Z,98986.16
2022-09-14T17:41:30.333Z,98983.34
2022-09-14T17:44:32.830Z,98988.84
2022-09-14T17:47:36.150Z,98979.56
2022-09-14T17:50:39.372Z,98977.56
2022-09-14T17:53:43.708Z,98981.28
2022-09-14T17:56:46.484Z,98968.12
2022-09-14T17:59:49.316Z,98957.00
2022-09-14T18:02:52.424Z,98962.84
2022-09-14T18:05:55.524Z,98961.97
2022-09-14T18:09:01.016Z,98948.59
2022-09-14T18:12:04.081Z,98946.31
2022-09-14T18:15:06.940Z,98954.34
2022-09-14T18:18:10.109Z,98962.06
2022-09-14T18:21:13.217Z,98973.88
2022-09-14T18:24:16.135Z,98979.13
2022-09-14T18:27:18.686Z,98990.62
2022-09-14T18:30:21.496Z,98989.75
2022-09-14T18:33:24.089Z,98992.38
2022-09-14T18:36:29.411Z,98989.84
2022-09-14T18:39:32.222Z,98977.31
2022-09-14T18:42:35.054Z,98984.16
2022-09-14T18:45:37.899Z,98978.69
2022-09-14T18:48:43.580Z,98957.34
2022-09-14T18:51:46.078Z,98961.97
2022-09-14T18:54:48.906Z,98956.72
2022-09-14T18:57:51.407Z,98951.81
2022-09-14T19:00:54.414Z,98957.94
2022-09-14T19:03:57.753Z,98962.72
2022-09-14T19:07:01.099Z,98965.09
2022-09-14T19:10:07.681Z,98956.44
2022-09-14T19:13:12.508Z,98950.94
2022-09-14T19:16:17.320Z,98957.56
2022-09-14T19:19:20.453Z,98944.41
2022-09-14T19:22:22.925Z,98956.97
2022-09-14T19:25:26.034Z,98957.97
2022-09-14T19:28:28.475Z,98956.37
2022-09-14T19:31:33.425Z,98952.06
2022-09-14T19:34:37.898Z,98941.37
2022-09-14T19:37:40.679Z,98939.34
2022-09-14T19:40:52.639Z,98931.84
2022-09-14T19:44:15.759Z,98946.50
2022-09-14T19:47:18.256Z,98949.19
2022-09-14T19:50:21.155Z,98945.06
2022-09-14T19:53:24.136Z,98941.91
2022-09-14T19:56:29.031Z,98938.03
2022-09-14T19:59:31.692Z,98930.78
2022-09-14T20:02:34.828Z,98933.53
2022-09-14T20:05:37.738Z,98941.37
2022-09-14T20:08:40.439Z,98941.37
2022-09-14T20:11:45.050Z,98945.59
2022-09-14T20:14:47.487Z,98940.69
2022-09-14T20:17:53.843Z,98928.03
2022-09-14T20:20:56.474Z,98929.22
2022-09-14T20:24:17.780Z,98915.28
2022-09-14T20:27:21.199Z,98913.16
2022-09-14T20:30:24.159Z,98902.72
2022-09-14T20:33:26.907Z,98906.22
2022-09-14T20:36:29.837Z,98900.34
2022-09-14T20:39:35.923Z,98897.91
2022-09-14T20:42:38.851Z,98910.47
2022-09-14T20:45:41.332Z,98919.47
2022-09-14T20:48:44.571Z,98923.56
2022-09-14T20:51:47.231Z,98926.00
2022-09-14T20:54:50.159Z,98926.59
2022-09-14T20:57:52.769Z,98912.88
2022-09-14T21:01:03.872Z,98916.63
2022-09-14T21:04:09.166Z,98913.69
2022-09-14T21:07:12.299Z,98912.88
2022-09-14T21:10:15.178Z,98908.88
2022-09-14T21:13:18.167Z,98916.38
2022-09-14T21:16:22.350Z,98922.84
2022-09-14T21:19:27.570Z,98929.94
2022-09-14T21:22:30.091Z,98924.31
2022-09-14T21:25:33.414Z,98919.53
2022-09-14T21:28:37.732Z,98921.97
2022-09-14T21:31:40.701Z,98926.66
2022-09-14T21:34:43.639Z,98923.25
2022-09-14T21:37:50.818Z,98923.41
2022-09-14T21:40:53.347Z,98916.22
2022-09-14T21:43:58.126Z,98929.00
2022-09-14T21:47:01.889Z,98925.50
2022-09-14T21:50:05.310Z,98921.03
2022-09-14T21:53:07.961Z,98915.28
2022-09-14T21:56:11.136Z,98919.97
2022-09-14T21:59:16.098Z,98929.69
2022-09-14T22:02:19.221Z,98920.84
2022-09-14T22:05:22.422Z,98921.19
2022-09-14T22:08:26.085Z,98919.31
2022-09-14T22:11:32.364Z,98920.72
2022-09-14T22:14:35.157Z,98914.97
2022-09-14T22:17:38.679Z,98911.22
2022-09-14T22:20:41.886Z,98908.03
2022-09-14T22:23:52.802Z,98897.56
2022-09-14T22:26:57.467Z,98904.59
2022-09-14T22:30:00.985Z,98900.28
2022-09-14T22:33:04.424Z,98909.75
2022-09-14T22:36:07.964Z,98903.78
2022-09-14T22:43:09.695Z,98922.66
2022-09-14T22:46:13.060Z,98913.53
2022-09-14T22:49:16.671Z,98910.81
2022-09-14T22:52:19.580Z,98893.81
2022-09-14T22:55:23.191Z,98899.12
2022-09-14T22:58:27.706Z,98889.56
2022-09-14T23:01:33.400Z,98890.13
2022-09-14T23:04:36.532Z,98891.78
2022-09-14T23:07:39.691Z,98888.59
2022-09-14T23:10:42.391Z,98892.66
2022-09-14T23:13:45.792Z,98898.41
2022-09-14T23:16:48.562Z,98898.72
2022-09-14T23:19:51.681Z,98896.59
2022-09-14T23:22:54.447Z,98892.38
2022-09-14T23:26:03.543Z,98897.53
2022-09-14T23:29:09.472Z,98896.63
2022-09-14T23:32:12.852Z,98890.16
2022-09-14T23:35:16.120Z,98890.16
2022-09-14T23:38:19.560Z,98885.41
2022-09-14T23:41:24.337Z,98880.03
2022-09-14T23:44:27.472Z,98875.53
2022-09-14T23:47:30.105Z,98890.31
2022-09-14T23:50:33.952Z,98887.25
2022-09-14T23:53:36.921Z,98875.69
2022-09-14T23:56:40.182Z,98869.91
2022-09-14T23:59:43.294Z,98856.63
